EGVO METAR and TAF | Updated Today

EGVO METAR

RAF Odiham

Observation time: 25 min. ago

EGVO 062020Z 19011KT CAVOK 13/11 Q1027 NOSIG RMK BLU BLU

Need help? Read our tutorial on how to read METARs or read the parsed version below.

RAF Odiham (EGVO) METAR

  • Weather conditions on Thu, 06 Oct 2022 20:20:00 +0000 (25 min. ago):
  • Present conditions: Dry
  • Clouds: Clear skies
  • Visibility: Greater than 10 km
  • Wind: 190 degrees at 11 knots
  • Temperature: 13 celsius
  • Dew point: 11 celsius
  • Pressure: 1027 millibars
  • Remarks: BLU BLU


Useful to know...